This is the latest recevied weather packets stored in our database for station/object KI5NYZ. If no packets are shown the sender has not sent any weather packets the latest 10 day(s).
| Time | Temp. | Humidity | Pressure | Rain* | Wind** | Luminosity | Snow |
|---|---|---|---|---|---|---|---|
| 1777903528 | 16.11° C | 70% | 1011.8 hPa | 0 mm | - | 147 W/m² | - |
| 1777902923 | 15.56° C | 71% | 1011.7 hPa | 0 mm | - | 80 W/m² | - |
| 1777902322 | 15.56° C | 73% | 1011.8 hPa | 0 mm | - | 92 W/m² | - |
| 1777899920 | 12.78° C | 83% | 1011.1 hPa | 0 mm | - | 53 W/m² | - |
| 1777899341 | 12.22° C | 85% | 1011.1 hPa | 0 mm | - | 46 W/m² | - |
| 1777889119 | 12.78° C | 79% | 1011 hPa | 0 mm | - | 0 W/m² | - |
| 1777886759 | 13.33° C | 78% | 1011.3 hPa | 0 mm | - | 0 W/m² | - |
| 1777886120 | 13.33° C | 77% | 1011.5 hPa | 0 mm | - | 0 W/m² | - |
| 1777881940 | 13.89° C | 73% | 1012.1 hPa | 0 mm | - | 0 W/m² | - |
| 1777868121 | 17.78° C | 52% | 1014.2 hPa | 0 mm | - | 0 W/m² | - |
| 1777867521 | 17.78° C | 52% | 1014.1 hPa | 0 mm | - | 0 W/m² | - |
| 1777866923 | 17.78° C | 52% | 1014.2 hPa | 0 mm | - | 0 W/m² | - |
| 1777866318 | 17.78° C | 53% | 1014.2 hPa | 0 mm | - | 0 W/m² | - |
| 1777865721 | 18.33° C | 52% | 1014.2 hPa | 0 mm | - | 0 W/m² | - |
| 1777860940 | 19.44° C | 46% | 1014 hPa | 0 mm | - | 0 W/m² | - |
| 1777854921 | 23.33° C | 33% | 1014 hPa | 0 mm | - | 105 W/m² | - |
| 1777850720 | 23.89° C | 32% | 1014.7 hPa | 0 mm | - | 200 W/m² | - |
| 1777848920 | 24.44° C | 31% | 1014.8 hPa | 0 mm | - | 275 W/m² | - |
| 1777847720 | 24.44° C | 31% | 1015 hPa | 0 mm | - | 308 W/m² | - |
| 1777835721 | 23.33° C | 34% | 1018.6 hPa | 0 mm | - | 801 W/m² | - |
| 1777833943 | 23.33° C | 34% | 1019.1 hPa | 0 mm | - | 891 W/m² | - |
| 1777832122 | 22.78° C | 35% | 1019.8 hPa | 0 mm | - | 974 W/m² | - |
| 1777830921 | 22.22° C | 37% | 1020.3 hPa | 0 mm | - | 986 W/m² | - |
| 1777829119 | 21.11° C | 39% | 1020.7 hPa | 0 mm | - | 965 W/m² | - |
| 1777823123 | 18.89° C | 49% | 1021.7 hPa | 0 mm | - | 507 W/m² | - |
* Rain latest hour (hover to see other rain measurements)
** Current wind speed in m/s (hover to see current wind gust speed)